createdAt,value
2017-08-25T00:01:45.622Z,4.43
2017-08-25T00:04:12.268Z,3.80
2017-08-25T00:06:38.939Z,4.43
2017-08-25T00:09:05.582Z,6.80
2017-08-25T00:11:32.248Z,7.03
2017-08-25T00:13:58.920Z,3.37
2017-08-25T00:16:26.062Z,5.03
2017-08-25T00:18:52.759Z,3.80
2017-08-25T00:21:19.390Z,2.83
2017-08-25T00:23:46.013Z,5.93
2017-08-25T00:26:12.724Z,4.20
2017-08-25T00:28:39.387Z,3.97
2017-08-25T00:31:06.079Z,4.43
2017-08-25T00:33:32.710Z,4.03
2017-08-25T00:35:59.348Z,3.10
2017-08-25T00:38:26.023Z,4.33
2017-08-25T00:40:52.715Z,3.47
2017-08-25T00:43:19.396Z,2.10
2017-08-25T00:45:46.018Z,2.60
2017-08-25T00:48:12.710Z,4.23
2017-08-25T00:50:39.393Z,2.47
2017-08-25T00:53:06.050Z,2.10
2017-08-25T00:55:32.833Z,2.13
2017-08-25T00:57:59.461Z,3.03
2017-08-25T01:00:26.145Z,4.77
2017-08-25T01:02:52.882Z,4.23
2017-08-25T01:05:19.555Z,3.33
2017-08-25T01:07:46.221Z,5.47
2017-08-25T01:10:12.847Z,8.27
2017-08-25T01:12:39.491Z,6.87
2017-08-25T01:15:06.258Z,4.97
2017-08-25T01:17:32.916Z,6.40
2017-08-25T01:19:59.740Z,5.57
2017-08-25T01:22:26.376Z,2.87
2017-08-25T01:24:53.020Z,4.20
2017-08-25T01:27:19.756Z,4.20
2017-08-25T01:29:46.396Z,2.97
2017-08-25T01:32:13.037Z,2.67
2017-08-25T01:34:39.772Z,3.73
2017-08-25T01:37:06.394Z,4.50
2017-08-25T01:39:33.058Z,2.90
2017-08-25T01:41:59.939Z,3.03
2017-08-25T01:44:26.630Z,5.00
2017-08-25T01:46:53.271Z,6.70
2017-08-25T01:49:19.920Z,4.37
2017-08-25T01:51:46.648Z,3.97
2017-08-25T01:54:13.275Z,8.40
2017-08-25T01:56:39.928Z,5.30
2017-08-25T01:59:06.676Z,2.90
2017-08-25T02:01:33.352Z,4.10
2017-08-25T02:03:59.996Z,3.53
2017-08-25T02:06:26.680Z,8.87
2017-08-25T02:08:53.374Z,7.60
2017-08-25T02:11:20.016Z,6.53
2017-08-25T02:13:46.647Z,3.97
2017-08-25T02:16:13.307Z,6.77
2017-08-25T02:18:39.992Z,5.10
2017-08-25T02:21:06.712Z,2.93
2017-08-25T02:23:33.382Z,3.00
2017-08-25T02:26:00.054Z,4.63
2017-08-25T02:28:26.731Z,3.63
2017-08-25T02:30:53.343Z,2.77
2017-08-25T02:33:19.961Z,4.27
2017-08-25T02:35:46.643Z,3.23
2017-08-25T02:38:13.287Z,3.93
2017-08-25T02:40:39.965Z,2.50
2017-08-25T02:43:06.605Z,2.77
2017-08-25T02:45:33.298Z,2.17
2017-08-25T02:47:59.975Z,3.10
2017-08-25T02:50:26.676Z,3.43
2017-08-25T02:52:53.324Z,3.60
2017-08-25T02:55:19.964Z,3.60
2017-08-25T02:57:46.640Z,3.43
2017-08-25T03:00:13.331Z,4.73
2017-08-25T03:02:39.969Z,6.27
2017-08-25T03:05:06.650Z,3.23
2017-08-25T03:07:33.324Z,2.73
2017-08-25T03:10:00.031Z,4.10
2017-08-25T03:12:26.673Z,3.00
2017-08-25T03:14:53.303Z,3.13
2017-08-25T03:17:20.011Z,3.37
2017-08-25T03:19:46.648Z,3.43
2017-08-25T03:22:13.319Z,4.37
2017-08-25T03:24:39.955Z,4.87
2017-08-25T03:27:06.607Z,3.60
2017-08-25T03:29:33.280Z,3.80
2017-08-25T03:31:59.923Z,3.30
2017-08-25T03:34:26.599Z,4.73
2017-08-25T03:36:53.254Z,2.87
2017-08-25T03:39:19.973Z,2.73
2017-08-25T03:41:46.623Z,7.03
2017-08-25T03:44:13.274Z,3.03
2017-08-25T03:46:39.952Z,3.07
2017-08-25T03:49:06.587Z,3.93
2017-08-25T03:51:33.290Z,2.83
2017-08-25T03:53:59.943Z,5.23
2017-08-25T03:56:26.907Z,3.80
2017-08-25T03:58:53.560Z,2.87
2017-08-25T04:01:20.213Z,2.77
2017-08-25T04:03:46.912Z,3.07
2017-08-25T04:06:13.548Z,4.47
2017-08-25T04:08:40.240Z,4.20
2017-08-25T04:11:06.931Z,2.97
2017-08-25T04:13:33.563Z,3.43
2017-08-25T04:16:00.244Z,3.23
2017-08-25T04:18:26.871Z,3.10
2017-08-25T04:20:53.534Z,5.43
2017-08-25T04:23:20.225Z,6.90
2017-08-25T04:25:46.854Z,3.20
2017-08-25T04:28:14.303Z,3.10
2017-08-25T04:30:40.945Z,2.87
2017-08-25T04:33:07.608Z,2.63
2017-08-25T04:35:34.238Z,3.27
2017-08-25T04:38:00.927Z,3.80
2017-08-25T04:40:27.571Z,3.00
2017-08-25T04:42:54.247Z,3.00
2017-08-25T04:45:20.892Z,3.13
2017-08-25T04:47:47.655Z,3.13
2017-08-25T04:50:14.331Z,3.90
2017-08-25T04:52:41.035Z,3.43
2017-08-25T04:55:07.711Z,6.13
2017-08-25T04:57:34.383Z,3.87
2017-08-25T05:00:01.028Z,3.80
2017-08-25T05:02:27.750Z,5.47
2017-08-25T05:04:54.390Z,4.03
2017-08-25T05:07:21.035Z,4.10
2017-08-25T05:09:47.828Z,3.80
2017-08-25T05:12:14.463Z,5.77
2017-08-25T05:14:41.389Z,4.33
2017-08-25T05:17:08.055Z,4.13
2017-08-25T05:19:34.726Z,3.30
2017-08-25T05:22:01.404Z,4.33
2017-08-25T05:24:28.064Z,4.10
2017-08-25T05:26:54.713Z,3.97
2017-08-25T05:29:21.410Z,4.63
2017-08-25T05:31:48.055Z,3.63
2017-08-25T05:34:15.808Z,6.13
2017-08-25T05:36:42.547Z,5.70
2017-08-25T05:39:09.355Z,3.77
2017-08-25T05:41:36.015Z,5.90
2017-08-25T05:44:02.665Z,5.30
2017-08-25T05:46:29.343Z,7.97
2017-08-25T05:48:55.985Z,3.93
2017-08-25T05:51:22.659Z,4.93
2017-08-25T05:53:49.337Z,9.20
2017-08-25T05:56:16.037Z,5.40
2017-08-25T05:58:42.675Z,5.60
2017-08-25T06:01:09.324Z,7.60
2017-08-25T06:03:35.977Z,7.20
2017-08-25T06:06:02.663Z,7.43
2017-08-25T06:08:29.330Z,5.70
2017-08-25T06:10:55.953Z,4.20
2017-08-25T06:13:22.606Z,7.00
2017-08-25T06:15:49.284Z,5.53
2017-08-25T06:18:15.917Z,5.13
2017-08-25T06:20:42.579Z,3.77
2017-08-25T06:23:09.225Z,9.77
2017-08-25T06:25:35.919Z,7.13
2017-08-25T06:28:02.581Z,4.97
2017-08-25T06:30:29.243Z,6.40
2017-08-25T06:32:55.924Z,6.90
2017-08-25T06:35:22.594Z,4.50
2017-08-25T06:37:49.265Z,6.13
2017-08-25T06:40:15.905Z,9.00
2017-08-25T06:42:42.590Z,5.13
2017-08-25T06:45:09.243Z,5.10
2017-08-25T06:47:35.908Z,4.63
2017-08-25T06:50:02.580Z,4.00
2017-08-25T06:52:29.235Z,6.00
2017-08-25T06:54:55.911Z,5.60
2017-08-25T06:57:22.546Z,4.97
2017-08-25T06:59:49.223Z,5.50
2017-08-25T07:02:15.871Z,4.30
2017-08-25T07:04:42.506Z,3.93
2017-08-25T07:07:09.187Z,3.60
2017-08-25T07:09:35.841Z,4.30
2017-08-25T07:12:02.533Z,3.43
2017-08-25T07:14:29.172Z,4.20
2017-08-25T07:16:55.876Z,4.90
2017-08-25T07:19:22.749Z,4.40
2017-08-25T07:21:49.416Z,4.90
2017-08-25T07:24:16.116Z,4.83
2017-08-25T07:26:42.818Z,5.03
2017-08-25T07:29:09.532Z,3.53
2017-08-25T07:31:36.245Z,4.13
2017-08-25T07:34:02.888Z,4.73
2017-08-25T07:36:29.656Z,4.90
2017-08-25T07:38:56.291Z,3.67
2017-08-25T07:41:22.959Z,5.10
2017-08-25T07:43:49.590Z,4.10
2017-08-25T07:46:16.297Z,3.80
2017-08-25T07:48:42.936Z,3.97
2017-08-25T07:51:09.576Z,3.40
2017-08-25T07:53:36.288Z,5.43
2017-08-25T07:56:02.926Z,4.27
2017-08-25T07:58:29.568Z,4.40
2017-08-25T08:00:56.364Z,4.00
2017-08-25T08:03:23.000Z,4.10
2017-08-25T08:05:49.637Z,4.80
2017-08-25T08:08:16.325Z,6.50
2017-08-25T08:10:42.964Z,4.80
2017-08-25T08:13:09.588Z,6.13
2017-08-25T08:15:36.259Z,8.20
2017-08-25T08:18:02.895Z,5.07
2017-08-25T08:20:29.576Z,6.17
2017-08-25T08:22:56.226Z,3.90
2017-08-25T08:25:22.875Z,6.00
2017-08-25T08:27:49.567Z,4.17
2017-08-25T08:30:16.197Z,5.03
2017-08-25T08:32:42.963Z,4.83
2017-08-25T08:35:09.600Z,5.33
2017-08-25T08:37:36.342Z,4.80
2017-08-25T08:40:03.031Z,4.80
2017-08-25T08:42:29.662Z,5.93
2017-08-25T08:44:56.344Z,5.03
2017-08-25T08:47:23.036Z,4.97
2017-08-25T08:49:49.675Z,5.03
2017-08-25T08:52:16.317Z,6.47
2017-08-25T08:54:43.001Z,6.73
2017-08-25T08:57:09.648Z,3.80
2017-08-25T08:59:36.319Z,4.03
2017-08-25T09:02:02.942Z,3.87
2017-08-25T09:04:29.571Z,4.20
2017-08-25T09:06:56.250Z,5.07
2017-08-25T09:09:22.878Z,5.10
2017-08-25T09:11:49.522Z,4.00
2017-08-25T09:14:16.204Z,14.10
2017-08-25T09:16:42.845Z,12.43
2017-08-25T09:19:09.513Z,10.23
2017-08-25T09:21:36.148Z,5.77
2017-08-25T09:24:02.844Z,4.67
2017-08-25T09:26:29.520Z,4.40
2017-08-25T09:28:56.193Z,5.33
2017-08-25T09:31:22.838Z,7.40
2017-08-25T09:33:49.521Z,4.30
2017-08-25T09:36:16.267Z,4.00
2017-08-25T09:38:42.950Z,4.63
2017-08-25T09:41:09.584Z,5.00
2017-08-25T09:43:36.246Z,4.40
2017-08-25T09:46:02.884Z,4.77
2017-08-25T09:48:29.558Z,6.10
2017-08-25T09:50:56.302Z,5.27
2017-08-25T09:53:22.974Z,6.03
2017-08-25T09:55:49.786Z,4.80
2017-08-25T09:58:16.468Z,6.27
2017-08-25T10:00:43.168Z,5.97
2017-08-25T10:03:09.795Z,6.03
2017-08-25T10:05:36.426Z,4.17
2017-08-25T10:08:03.095Z,10.73
2017-08-25T10:10:29.779Z,4.13
2017-08-25T10:12:56.455Z,5.53
2017-08-25T10:15:23.099Z,4.20
2017-08-25T10:17:49.776Z,4.70
2017-08-25T10:20:16.482Z,4.93
2017-08-25T10:22:43.119Z,5.20
2017-08-25T10:25:09.755Z,5.37
2017-08-25T10:27:36.447Z,4.23
2017-08-25T10:30:03.078Z,4.87
2017-08-25T10:32:29.708Z,4.50
2017-08-25T10:35:02.265Z,4.77
2017-08-25T10:37:34.818Z,4.43
2017-08-25T10:40:07.336Z,4.23
2017-08-25T10:42:39.679Z,4.80
2017-08-25T10:45:08.083Z,5.10
2017-08-25T10:47:34.725Z,8.00
2017-08-25T10:50:01.374Z,4.67
2017-08-25T10:52:28.061Z,4.53
2017-08-25T10:54:54.701Z,4.10
2017-08-25T10:57:21.340Z,4.20
2017-08-25T10:59:48.023Z,5.30
2017-08-25T11:02:14.699Z,5.03
2017-08-25T11:04:41.396Z,4.50
2017-08-25T11:07:08.030Z,4.33
2017-08-25T11:09:34.727Z,4.40
2017-08-25T11:12:01.920Z,4.47
2017-08-25T11:14:28.551Z,4.73
2017-08-25T11:16:55.228Z,4.27
2017-08-25T11:19:21.851Z,4.23
2017-08-25T11:21:48.528Z,7.97
2017-08-25T11:24:15.169Z,6.87
2017-08-25T11:26:41.847Z,5.50
2017-08-25T11:29:08.482Z,4.90
2017-08-25T11:31:35.175Z,4.37
2017-08-25T11:34:01.847Z,4.43
2017-08-25T11:36:28.532Z,4.40
2017-08-25T11:38:55.175Z,4.67
2017-08-25T11:41:22.568Z,6.20
2017-08-25T11:43:49.251Z,5.30
2017-08-25T11:46:15.933Z,5.63
2017-08-25T11:48:42.590Z,5.30
2017-08-25T11:51:09.227Z,4.90
2017-08-25T11:53:35.952Z,5.37
2017-08-25T11:56:02.596Z,5.00
2017-08-25T11:58:29.289Z,5.63
2017-08-25T12:00:55.957Z,6.40
2017-08-25T12:03:22.600Z,6.17
2017-08-25T12:05:49.349Z,6.30
2017-08-25T12:08:15.978Z,6.23
2017-08-25T12:10:43.229Z,5.20
2017-08-25T12:13:09.863Z,6.30
2017-08-25T12:15:36.561Z,6.33
2017-08-25T12:18:03.223Z,5.97
2017-08-25T12:20:29.860Z,5.97
2017-08-25T12:22:56.543Z,6.33
2017-08-25T12:25:23.194Z,5.90
2017-08-25T12:27:49.874Z,5.60
2017-08-25T12:30:16.572Z,6.23
2017-08-25T12:32:43.231Z,6.67
2017-08-25T12:35:09.870Z,6.53
2017-08-25T12:37:36.567Z,6.67
2017-08-25T12:40:03.205Z,6.53
2017-08-25T12:42:29.835Z,8.03
2017-08-25T12:44:56.505Z,6.17
2017-08-25T12:47:23.179Z,6.47
2017-08-25T12:49:49.827Z,6.13
2017-08-25T12:52:16.505Z,6.00
2017-08-25T12:54:43.191Z,7.73
2017-08-25T12:57:10.073Z,6.17
2017-08-25T12:59:36.704Z,6.57
2017-08-25T13:02:03.344Z,6.13
2017-08-25T13:04:30.012Z,6.40
2017-08-25T13:06:56.699Z,7.07
2017-08-25T13:09:24.182Z,6.77
2017-08-25T13:11:50.860Z,5.73
2017-08-25T13:14:17.567Z,8.40
2017-08-25T13:16:44.225Z,7.00
2017-08-25T13:19:10.863Z,6.33
2017-08-25T13:21:37.551Z,6.53
2017-08-25T13:24:04.184Z,6.60
2017-08-25T13:26:30.958Z,5.97
2017-08-25T13:28:57.583Z,6.10
2017-08-25T13:31:24.229Z,6.27
2017-08-25T13:33:50.975Z,6.30
2017-08-25T13:36:17.608Z,8.10
2017-08-25T13:38:44.239Z,6.43
2017-08-25T13:41:10.915Z,6.93
2017-08-25T13:43:37.611Z,7.10
2017-08-25T13:46:04.251Z,6.77
2017-08-25T13:48:31.007Z,6.87
2017-08-25T13:50:57.645Z,7.13
2017-08-25T13:53:24.318Z,7.00
2017-08-25T13:55:51.000Z,7.30
2017-08-25T13:58:17.684Z,8.53
2017-08-25T14:00:44.334Z,7.40
2017-08-25T14:03:11.040Z,6.90
2017-08-25T14:05:37.706Z,8.23
2017-08-25T14:08:04.339Z,7.70
2017-08-25T14:10:31.058Z,7.43
2017-08-25T14:12:57.740Z,8.13
2017-08-25T14:15:24.378Z,7.57
2017-08-25T14:17:51.027Z,7.80
2017-08-25T14:20:17.719Z,7.57
2017-08-25T14:22:44.363Z,7.20
2017-08-25T14:25:11.037Z,7.63
2017-08-25T14:27:37.677Z,7.50
2017-08-25T14:30:04.468Z,7.80
2017-08-25T14:32:31.207Z,7.57
2017-08-25T14:34:57.935Z,8.43
2017-08-25T14:37:24.636Z,7.43
2017-08-25T14:39:51.279Z,6.80
2017-08-25T14:42:17.955Z,8.23
2017-08-25T14:44:44.635Z,8.13
2017-08-25T14:47:11.320Z,7.73
2017-08-25T14:49:38.086Z,8.60
2017-08-25T14:52:04.769Z,9.23
2017-08-25T14:54:31.502Z,7.20
2017-08-25T14:56:58.134Z,7.57
2017-08-25T14:59:24.820Z,6.63
2017-08-25T15:01:51.479Z,7.30
2017-08-25T15:04:18.146Z,7.17
2017-08-25T15:06:44.827Z,7.07
2017-08-25T15:09:11.499Z,7.80
2017-08-25T15:11:38.186Z,7.50
2017-08-25T15:14:04.869Z,6.93
2017-08-25T15:16:31.511Z,6.93
2017-08-25T15:18:58.196Z,7.20
2017-08-25T15:21:24.882Z,7.40
2017-08-25T15:23:51.516Z,7.47
2017-08-25T15:26:18.151Z,7.33
2017-08-25T15:28:44.825Z,8.03
2017-08-25T15:31:11.545Z,7.13
2017-08-25T15:33:38.215Z,6.90
2017-08-25T15:36:04.842Z,7.57
2017-08-25T15:38:31.919Z,7.40
2017-08-25T15:40:58.611Z,7.57
2017-08-25T15:43:25.265Z,7.13
2017-08-25T15:45:51.987Z,7.50
2017-08-25T15:48:18.647Z,7.60
2017-08-25T15:50:45.298Z,7.20
2017-08-25T15:53:11.966Z,7.93
2017-08-25T15:55:38.600Z,7.40
2017-08-25T15:58:05.269Z,7.07
2017-08-25T16:00:31.942Z,7.57
2017-08-25T16:02:58.584Z,7.17
2017-08-25T16:05:25.260Z,7.80
2017-08-25T16:07:51.907Z,7.63
2017-08-25T16:10:18.593Z,8.37
2017-08-25T16:12:45.287Z,7.07
2017-08-25T16:15:11.919Z,7.30
2017-08-25T16:17:38.554Z,7.47
2017-08-25T16:20:05.250Z,6.83
2017-08-25T16:22:31.915Z,7.10
2017-08-25T16:24:59.423Z,8.03
2017-08-25T16:27:26.114Z,6.93
2017-08-25T16:29:52.759Z,7.40
2017-08-25T16:32:19.392Z,7.20
2017-08-25T16:34:46.068Z,7.60
2017-08-25T16:37:12.774Z,7.70
2017-08-25T16:39:39.413Z,7.43
2017-08-25T16:42:06.059Z,7.40
2017-08-25T16:44:32.740Z,8.03
2017-08-25T16:46:59.374Z,8.00
2017-08-25T16:49:26.008Z,9.77
2017-08-25T16:51:52.683Z,9.90
2017-08-25T16:54:19.324Z,10.10
2017-08-25T16:56:46.012Z,10.10
2017-08-25T16:59:12.655Z,8.20
2017-08-25T17:01:39.315Z,9.43
2017-08-25T17:04:05.983Z,8.20
2017-08-25T17:06:32.603Z,8.87
2017-08-25T17:08:59.272Z,8.03
2017-08-25T17:11:25.894Z,8.10
2017-08-25T17:13:52.588Z,9.47
2017-08-25T17:16:19.340Z,7.87
2017-08-25T17:18:45.962Z,8.33
2017-08-25T17:21:12.639Z,13.87
2017-08-25T17:23:39.355Z,10.93
2017-08-25T17:26:06.404Z,9.60
2017-08-25T17:28:33.047Z,7.70
2017-08-25T17:30:59.691Z,8.53
2017-08-25T17:33:26.420Z,7.60
2017-08-25T17:35:53.053Z,8.63
2017-08-25T17:38:19.725Z,9.90
2017-08-25T17:40:46.437Z,9.53
2017-08-25T17:43:13.137Z,7.60
2017-08-25T17:45:39.788Z,7.30
2017-08-25T17:48:06.556Z,7.47
2017-08-25T17:50:33.200Z,7.20
2017-08-25T17:52:59.934Z,7.93
2017-08-25T17:55:26.603Z,7.63
2017-08-25T17:57:53.283Z,8.60
2017-08-25T18:00:19.931Z,7.30
2017-08-25T18:02:46.604Z,7.57
2017-08-25T18:05:13.328Z,7.77
2017-08-25T18:07:39.960Z,7.37
2017-08-25T18:10:06.643Z,8.23
2017-08-25T18:12:33.349Z,6.47
2017-08-25T18:15:00.037Z,8.60
2017-08-25T18:17:26.737Z,10.40
2017-08-25T18:19:53.464Z,9.50
2017-08-25T18:22:20.100Z,9.23
2017-08-25T18:24:46.842Z,11.17
2017-08-25T18:27:13.501Z,9.17
2017-08-25T18:29:40.120Z,8.60
2017-08-25T18:32:06.861Z,12.27
2017-08-25T18:34:33.499Z,7.00
2017-08-25T18:37:00.164Z,7.67
2017-08-25T18:39:26.838Z,6.27
2017-08-25T18:41:53.476Z,6.17
2017-08-25T18:44:20.125Z,7.03
2017-08-25T18:46:46.893Z,7.83
2017-08-25T18:49:13.524Z,6.33
2017-08-25T18:51:40.219Z,8.60
2017-08-25T18:54:07.011Z,10.70
2017-08-25T18:56:33.643Z,6.30
2017-08-25T18:59:00.323Z,4.90
2017-08-25T19:01:26.995Z,5.50
2017-08-25T19:03:53.675Z,8.90
2017-08-25T19:06:20.297Z,6.70
2017-08-25T19:08:46.995Z,14.40
2017-08-25T19:11:13.625Z,7.80
2017-08-25T19:13:40.259Z,9.07
2017-08-25T19:16:07.063Z,6.07
2017-08-25T19:18:33.696Z,5.63
2017-08-25T19:21:00.375Z,8.60
2017-08-25T19:23:27.077Z,6.40
2017-08-25T19:25:53.755Z,6.47
2017-08-25T19:28:20.444Z,10.03
2017-08-25T19:30:47.080Z,7.33
2017-08-25T19:33:13.774Z,6.53
2017-08-25T19:35:40.435Z,12.63
2017-08-25T19:38:07.092Z,4.70
2017-08-25T19:40:33.779Z,8.57
2017-08-25T19:43:00.435Z,11.20
2017-08-25T19:45:27.072Z,5.33
2017-08-25T19:47:53.746Z,7.87
2017-08-25T19:50:20.516Z,6.30
2017-08-25T19:52:47.192Z,4.80
2017-08-25T19:55:13.843Z,10.00
2017-08-25T19:57:40.531Z,6.40
2017-08-25T20:00:07.263Z,9.33
2017-08-25T20:02:34.008Z,7.43
2017-08-25T20:05:00.703Z,12.73
2017-08-25T20:07:27.340Z,7.50
2017-08-25T20:09:54.020Z,6.43
2017-08-25T20:12:20.701Z,8.80
2017-08-25T20:14:47.335Z,6.27
2017-08-25T20:17:14.008Z,6.40
2017-08-25T20:19:40.653Z,6.93
2017-08-25T20:22:07.340Z,7.57
2017-08-25T20:24:33.989Z,13.60
2017-08-25T20:27:00.634Z,7.33
2017-08-25T20:29:27.430Z,11.87
2017-08-25T20:31:54.067Z,7.00
2017-08-25T20:34:20.701Z,13.37
2017-08-25T20:36:47.362Z,5.37
2017-08-25T20:39:14.085Z,11.47
2017-08-25T20:41:40.764Z,7.47
2017-08-25T20:44:07.396Z,6.80
2017-08-25T20:46:34.088Z,6.67
2017-08-25T20:49:00.733Z,6.60
2017-08-25T20:51:27.371Z,9.83
2017-08-25T20:53:54.057Z,8.80
2017-08-25T20:56:20.694Z,7.80
2017-08-25T20:58:47.380Z,5.63
2017-08-25T21:01:14.025Z,8.37
2017-08-25T21:03:40.702Z,11.03
2017-08-25T21:06:07.375Z,9.30
2017-08-25T21:08:34.042Z,7.53
2017-08-25T21:11:00.701Z,5.63
2017-08-25T21:13:27.332Z,5.97
2017-08-25T21:15:54.012Z,10.50
2017-08-25T21:18:20.670Z,5.97
2017-08-25T21:20:47.384Z,7.83
2017-08-25T21:23:14.084Z,6.63
2017-08-25T21:25:40.732Z,6.17
2017-08-25T21:28:07.414Z,7.53
2017-08-25T21:30:34.060Z,6.90
2017-08-25T21:33:00.739Z,9.00
2017-08-25T21:35:27.422Z,6.37
2017-08-25T21:37:54.060Z,5.57
2017-08-25T21:40:20.726Z,9.70
2017-08-25T21:42:47.354Z,8.03
2017-08-25T21:45:14.021Z,7.40
2017-08-25T21:47:40.869Z,8.07
2017-08-25T21:50:07.552Z,6.57
2017-08-25T21:52:34.357Z,8.47
2017-08-25T21:55:01.091Z,9.50
2017-08-25T21:57:27.727Z,7.13
2017-08-25T21:59:54.376Z,7.70
2017-08-25T22:02:21.062Z,6.93
2017-08-25T22:04:47.717Z,8.57
2017-08-25T22:07:14.352Z,9.70
2017-08-25T22:09:41.019Z,6.83
2017-08-25T22:12:07.664Z,9.37
2017-08-25T22:14:34.368Z,7.20
2017-08-25T22:17:01.010Z,8.73
2017-08-25T22:19:27.696Z,10.50
2017-08-25T22:21:54.332Z,9.93
2017-08-25T22:24:21.002Z,7.70
2017-08-25T22:26:47.692Z,8.60
2017-08-25T22:29:14.351Z,8.80
2017-08-25T22:31:41.018Z,9.07
2017-08-25T22:34:07.658Z,8.63
2017-08-25T22:36:34.342Z,8.07
2017-08-25T22:39:01.091Z,8.20
2017-08-25T22:41:27.828Z,7.63
2017-08-25T22:43:54.515Z,7.80
2017-08-25T22:46:21.206Z,9.60
2017-08-25T22:48:47.842Z,8.53
2017-08-25T22:51:14.514Z,8.13
2017-08-25T22:53:41.223Z,7.70
2017-08-25T22:56:07.913Z,7.60
2017-08-25T22:58:34.549Z,9.03
2017-08-25T23:01:01.236Z,8.60
2017-08-25T23:03:27.865Z,8.27
2017-08-25T23:05:54.513Z,9.87
2017-08-25T23:08:21.256Z,9.93
2017-08-25T23:10:47.931Z,8.83
2017-08-25T23:13:14.568Z,10.30
2017-08-25T23:15:41.247Z,8.30
2017-08-25T23:18:07.932Z,7.80
2017-08-25T23:20:34.650Z,9.70
2017-08-25T23:23:01.319Z,8.77
2017-08-25T23:25:27.996Z,8.80
2017-08-25T23:27:54.666Z,8.30
2017-08-25T23:30:21.291Z,9.07
2017-08-25T23:32:47.995Z,8.70
2017-08-25T23:35:14.640Z,11.00
2017-08-25T23:37:41.275Z,8.07
2017-08-25T23:40:08.062Z,11.43
2017-08-25T23:42:34.772Z,11.43
2017-08-25T23:45:01.400Z,7.83
2017-08-25T23:47:28.033Z,9.40
2017-08-25T23:49:54.768Z,9.70
2017-08-25T23:52:21.408Z,8.03
2017-08-25T23:54:48.050Z,8.30
2017-08-25T23:57:14.743Z,8.90
2017-08-25T23:59:41.412Z,7.60
